Flight Track Log - Related Links

Times and Time Zones

All times are in EDT time to prevent confusion due to time zone crossing. See the AMF1324 flight status page for this flight to view local times or setup timezone preferences in your user account.

Time Position Orientation Groundspeed Altitude Reporting Facility
EDT Latitude Longitude Course Direction KTS MPH feet Rate Location/Type
Wed 06:31:34 AM 42.9333 -78.7500 160° South 135 155 1,700  Level Buffalo TRACON
Wed 06:32:34 AM 42.9000 -78.7333 160° South 184 212 4,200 2,197 Climbing Buffalo TRACON
Wed 06:34:37 AM 42.9056 -78.5800 87° East 203 234 8,400 1,957 Climbing Cleveland Center
Wed 06:35:38 AM 42.9031 -78.5053 93° East 203 234 10,200 1,623 Climbing Cleveland Center
Wed 06:36:39 AM 42.8944 -78.4206 98° East 209 241 11,700 1,377 Climbing Cleveland Center
Wed 06:37:40 AM 42.8850 -78.3394 99° East 216 249 13,000 639 Climbing Cleveland Center
Wed 06:38:41 AM 42.8719 -78.2433 100° East 262 302 13,000  Level Cleveland Center
Wed 06:39:42 AM 42.8572 -78.1414 101° East 275 316 13,000  Level Cleveland Center
Wed 06:40:43 AM 42.8450 -78.0358 99° East 279 321 13,000  Level Cleveland Center
Wed 06:41:44 AM 42.8364 -77.9289 96° East 280 322 13,000  Level Cleveland Center
Wed 06:42:45 AM 42.8306 -77.8200 94° East 287 330 13,000  Level Cleveland Center
Wed 06:43:47 AM 42.8269 -77.7108 93° East 287 330 13,000 49 Level Cleveland Center
Wed 06:44:48 AM 42.7908 -77.6178 118° Southeast 280 322 13,100 49 Climbing Cleveland Center
Wed 06:45:49 AM 42.7564 -77.5217 116° Southeast 279 321 13,100  Level Cleveland Center
Wed 06:46:50 AM 42.7228 -77.4250 115° Southeast 279 321 13,100  Level Cleveland Center
Wed 06:47:51 AM 42.6892 -77.3294 116° Southeast 279 321 13,100  Level Cleveland Center
Wed 06:48:53 AM 42.6561 -77.2328 115° Southeast 279 321 13,100  Level Cleveland Center
Wed 06:49:54 AM 42.6211 -77.1383 117° Southeast 280 322 13,100 49 Level Cleveland Center
Wed 06:50:55 AM 42.5819 -77.0481 120° Southeast 278 320 13,200 49 Climbing Cleveland Center
Wed 06:51:57 AM 42.5325 -76.9442 123° Southeast 277 319 13,200 -146 Level Cleveland Center
Wed 06:52:58 AM 42.4906 -76.8564 123° Southeast 277 319 12,900 -653 Descending Cleveland Center
Wed 06:53:38 AM 42.4617 -76.7992 124° Southeast 282 325 12,100 -960 Descending New York Center
Wed 06:54:38 AM 42.4161 -76.7108 125° Southeast 292 336 11,300 -1,250 Descending New York Center
Wed 06:55:38 AM 42.3772 -76.6117 118° Southeast 292 336 9,600 -1,700 Descending New York Center
Wed 06:56:38 AM 42.3381 -76.5186 120° Southeast 292 336 7,900 -1,650 Descending New York Center
Wed 06:57:38 AM 42.3031 -76.4258 117° Southeast 286 329 6,300 -1,350 Descending New York Center
Wed 06:58:38 AM 42.2700 -76.3306 115° Southeast 281 323 5,200 -1,100 Descending New York Center
Wed 06:59:38 AM 42.2428 -76.2442 113° Southeast 264 304 4,100 -600 Descending New York Center
Wed 07:00:38 AM 42.2339 -76.1678 99° East 234 269 4,000 -350 Descending New York Center
Wed 07:01:38 AM 42.2597 -76.0997 63° Northeast 198 228 3,400 -550 Descending New York Center
Wed 07:02:38 AM 42.2619 -76.0494 87° East 173 199 2,900 -500 Descending New York Center
Wed 07:03:38 AM 42.2450 -76.0119 121° Southeast 124 143 2,400 -400 Descending New York Center
Wed 07:04:38 AM 42.2364 -75.9664 104° East 112 129 2,100 -300 Descending New York Center

Login

Don't have an account? Register now (free) for customized features, flight alerts, and more!